createdAt,value
2023-05-02T00:01:47.354Z,100.00
2023-05-02T00:04:13.990Z,100.00
2023-05-02T00:06:42.297Z,100.00
2023-05-02T00:09:09.103Z,100.00
2023-05-02T00:11:35.596Z,100.00
2023-05-02T00:14:01.918Z,100.00
2023-05-02T00:16:28.261Z,100.00
2023-05-02T00:18:54.670Z,100.00
2023-05-02T00:21:21.050Z,100.00
2023-05-02T00:23:47.493Z,100.00
2023-05-02T00:26:13.893Z,100.00
2023-05-02T00:28:40.348Z,100.00
2023-05-02T00:31:06.838Z,100.00
2023-05-02T00:33:33.267Z,100.00
2023-05-02T00:35:59.643Z,100.00
2023-05-02T00:38:25.956Z,100.00
2023-05-02T00:40:53.377Z,100.00
2023-05-02T00:43:20.289Z,100.00
2023-05-02T00:45:47.185Z,100.00
2023-05-02T00:48:13.976Z,100.00
2023-05-02T00:50:42.009Z,100.00
2023-05-02T00:53:10.551Z,100.00
2023-05-02T00:55:37.119Z,100.00
2023-05-02T00:58:07.111Z,100.00
2023-05-02T01:01:02.468Z,100.00
2023-05-02T01:03:45.567Z,100.00
2023-05-02T01:06:39.608Z,100.00
2023-05-02T01:09:37.657Z,100.00
2023-05-02T01:12:28.920Z,100.00
2023-05-02T01:14:57.581Z,100.00
2023-05-02T01:17:28.550Z,100.00
2023-05-02T01:19:58.911Z,100.00
2023-05-02T01:22:30.030Z,100.00
2023-05-02T01:25:18.381Z,100.00
2023-05-02T01:28:10.095Z,100.00
2023-05-02T01:30:41.102Z,100.00
2023-05-02T01:33:11.036Z,100.00
2023-05-02T01:35:38.802Z,100.00
2023-05-02T01:38:07.073Z,100.00
2023-05-02T01:40:36.545Z,100.00
2023-05-02T01:43:05.871Z,100.00
2023-05-02T01:45:34.604Z,100.00
2023-05-02T01:48:01.748Z,100.00
2023-05-02T01:50:28.940Z,100.00
2023-05-02T01:52:56.202Z,100.00
2023-05-02T01:55:24.317Z,100.00
2023-05-02T01:57:53.056Z,100.00
2023-05-02T02:00:20.686Z,100.00
2023-05-02T02:02:48.766Z,100.00
2023-05-02T02:05:18.040Z,100.00
2023-05-02T02:07:44.694Z,100.00
2023-05-02T02:10:11.490Z,100.00
2023-05-02T02:12:52.568Z,100.00
2023-05-02T02:15:25.856Z,100.00
2023-05-02T02:18:00.369Z,100.00
2023-05-02T02:20:29.506Z,99.96
2023-05-02T02:22:57.787Z,100.00
2023-05-02T02:25:26.910Z,100.00
2023-05-02T02:27:53.680Z,100.00
2023-05-02T02:30:20.094Z,99.86
2023-05-02T02:32:46.657Z,99.93
2023-05-02T02:35:13.238Z,99.99
2023-05-02T02:37:48.603Z,99.66
2023-05-02T02:40:30.306Z,99.29
2023-05-02T02:43:17.269Z,99.11
2023-05-02T02:45:55.083Z,98.58
2023-05-02T02:48:21.544Z,98.58
2023-05-02T02:51:25.532Z,98.15
2023-05-02T02:53:51.893Z,97.42
2023-05-02T02:56:29.932Z,97.20
2023-05-02T02:59:05.222Z,96.92
2023-05-02T03:01:33.299Z,97.24
2023-05-02T03:04:04.320Z,97.10
2023-05-02T03:06:31.659Z,97.55
2023-05-02T03:08:58.452Z,97.26
2023-05-02T03:11:25.602Z,97.23
2023-05-02T03:13:52.885Z,97.34
2023-05-02T03:16:28.212Z,96.81
2023-05-02T03:18:54.603Z,96.71
2023-05-02T03:21:21.188Z,96.03
2023-05-02T03:23:47.582Z,96.25
2023-05-02T03:26:14.052Z,96.46
2023-05-02T03:28:40.411Z,96.54
2023-05-02T03:31:06.715Z,96.50
2023-05-02T03:33:33.150Z,96.38
2023-05-02T03:35:59.560Z,96.24
2023-05-02T03:38:25.991Z,96.19
2023-05-02T03:40:52.479Z,96.81
2023-05-02T03:43:18.805Z,96.37
2023-05-02T03:45:46.115Z,96.63
2023-05-02T03:48:13.961Z,96.64
2023-05-02T03:50:40.283Z,97.07
2023-05-02T03:53:08.173Z,96.44
2023-05-02T03:55:39.413Z,96.42
2023-05-02T03:58:05.727Z,96.86
2023-05-02T04:00:32.070Z,97.53
2023-05-02T04:03:01.169Z,98.29
2023-05-02T04:05:27.557Z,98.41
2023-05-02T04:07:53.935Z,98.82
2023-05-02T04:10:20.614Z,98.48
2023-05-02T04:12:46.986Z,98.11
2023-05-02T04:15:13.564Z,98.67
2023-05-02T04:17:40.086Z,98.61
2023-05-02T04:20:07.376Z,98.27
2023-05-02T04:22:34.437Z,98.50
2023-05-02T04:25:00.965Z,97.63
2023-05-02T04:27:27.299Z,97.76
2023-05-02T04:29:53.932Z,97.63
2023-05-02T04:32:20.368Z,97.42
2023-05-02T04:34:46.756Z,97.81
2023-05-02T04:37:13.094Z,97.01
2023-05-02T04:39:39.463Z,96.19
2023-05-02T04:42:05.915Z,96.06
2023-05-02T04:44:32.294Z,95.95
2023-05-02T04:46:58.597Z,95.93
2023-05-02T04:49:24.969Z,95.33
2023-05-02T04:51:52.626Z,95.41
2023-05-02T04:54:19.205Z,95.14
2023-05-02T04:56:46.629Z,95.51
2023-05-02T04:59:13.100Z,95.24
2023-05-02T05:01:39.715Z,94.94
2023-05-02T05:04:06.261Z,95.03
2023-05-02T05:06:32.912Z,94.24
2023-05-02T05:08:59.305Z,93.57
2023-05-02T05:11:26.312Z,93.86
2023-05-02T05:13:52.822Z,94.29
2023-05-02T05:16:19.356Z,93.42
2023-05-02T05:18:45.712Z,93.14
2023-05-02T05:21:12.204Z,93.75
2023-05-02T05:23:38.668Z,92.91
2023-05-02T05:26:12.013Z,92.95
2023-05-02T05:28:39.029Z,92.61
2023-05-02T05:31:10.773Z,92.25
2023-05-02T05:33:40.700Z,92.38
2023-05-02T05:36:11.521Z,92.61
2023-05-02T05:38:38.750Z,91.97
2023-05-02T05:41:08.328Z,91.77
2023-05-02T05:43:37.812Z,91.48
2023-05-02T05:46:04.747Z,92.04
2023-05-02T05:48:31.288Z,91.15
2023-05-02T05:50:57.674Z,91.82
2023-05-02T05:53:24.040Z,91.80
2023-05-02T05:55:50.413Z,91.76
2023-05-02T05:58:17.025Z,92.04
2023-05-02T06:00:43.410Z,91.17
2023-05-02T06:03:10.221Z,91.58
2023-05-02T06:05:36.905Z,91.67
2023-05-02T06:08:03.447Z,90.99
2023-05-02T06:10:31.332Z,90.62
2023-05-02T06:12:57.956Z,90.72
2023-05-02T06:15:24.367Z,90.30
2023-05-02T06:17:51.880Z,89.31
2023-05-02T06:20:18.860Z,89.15
2023-05-02T06:22:45.845Z,88.49
2023-05-02T06:25:12.233Z,88.71
2023-05-02T06:27:38.621Z,88.31
2023-05-02T06:30:06.032Z,87.71
2023-05-02T06:32:32.533Z,86.79
2023-05-02T06:34:58.931Z,86.36
2023-05-02T06:37:25.522Z,86.14
2023-05-02T06:39:51.961Z,85.28
2023-05-02T06:42:18.371Z,85.65
2023-05-02T06:44:44.673Z,84.74
2023-05-02T06:47:11.233Z,85.04
2023-05-02T06:49:37.732Z,86.34
2023-05-02T06:52:04.199Z,85.63
2023-05-02T06:54:30.646Z,85.12
2023-05-02T06:56:57.026Z,86.47
2023-05-02T06:59:23.504Z,85.13
2023-05-02T07:01:49.822Z,85.17
2023-05-02T07:04:16.221Z,85.33
2023-05-02T07:06:42.645Z,85.83
2023-05-02T07:09:09.032Z,84.95
2023-05-02T07:11:35.411Z,85.27
2023-05-02T07:14:01.808Z,85.00
2023-05-02T07:16:28.379Z,83.87
2023-05-02T07:18:54.750Z,84.39
2023-05-02T07:21:21.171Z,84.14
2023-05-02T07:23:47.575Z,84.44
2023-05-02T07:26:14.040Z,82.85
2023-05-02T07:28:40.477Z,83.17
2023-05-02T07:31:06.867Z,83.46
2023-05-02T07:33:33.232Z,83.63
2023-05-02T07:36:01.990Z,82.73
2023-05-02T07:38:28.345Z,82.10
2023-05-02T07:40:58.041Z,81.60
2023-05-02T07:43:24.460Z,81.65
2023-05-02T07:45:50.951Z,80.14
2023-05-02T07:48:17.448Z,81.18
2023-05-02T07:50:43.901Z,80.93
2023-05-02T07:53:10.979Z,80.24
2023-05-02T07:55:37.294Z,80.22
2023-05-02T07:58:04.042Z,79.12
2023-05-02T08:00:30.669Z,79.25
2023-05-02T08:02:57.504Z,78.29
2023-05-02T08:05:23.940Z,77.92
2023-05-02T08:07:50.500Z,77.61
2023-05-02T08:10:16.983Z,77.03
2023-05-02T08:12:43.406Z,76.51
2023-05-02T08:15:12.465Z,77.43
2023-05-02T08:17:38.947Z,78.92
2023-05-02T08:20:06.107Z,79.06
2023-05-02T08:22:32.459Z,79.11
2023-05-02T08:24:58.996Z,77.90
2023-05-02T08:27:25.308Z,78.16
2023-05-02T08:29:51.635Z,75.86
2023-05-02T08:32:18.022Z,77.33
2023-05-02T08:34:44.344Z,75.23
2023-05-02T08:37:12.017Z,74.75
2023-05-02T08:39:38.382Z,72.95
2023-05-02T08:42:08.414Z,69.47
2023-05-02T08:44:34.801Z,68.17
2023-05-02T08:47:02.801Z,69.58
2023-05-02T08:49:31.999Z,68.58
2023-05-02T08:52:00.223Z,69.01
2023-05-02T08:54:29.121Z,69.45
2023-05-02T08:56:56.371Z,67.65
2023-05-02T08:59:22.873Z,67.56
2023-05-02T09:01:55.481Z,67.53
2023-05-02T09:04:24.715Z,65.46
2023-05-02T09:06:51.209Z,64.45
2023-05-02T09:09:19.114Z,66.31
2023-05-02T09:11:47.272Z,60.61
2023-05-02T09:14:17.295Z,64.36
2023-05-02T09:16:43.792Z,64.84
2023-05-02T09:19:10.437Z,63.40
2023-05-02T09:21:42.219Z,65.72
2023-05-02T09:24:19.918Z,64.75
2023-05-02T09:27:03.490Z,64.81
2023-05-02T09:29:35.613Z,61.84
2023-05-02T09:32:03.939Z,60.73
2023-05-02T09:34:31.483Z,61.53
2023-05-02T09:36:58.321Z,61.86
2023-05-02T09:39:31.527Z,60.27
2023-05-02T09:41:58.726Z,58.38
2023-05-02T09:44:26.954Z,54.39
2023-05-02T09:46:55.592Z,52.57
2023-05-02T09:49:40.972Z,50.86
2023-05-02T09:52:17.495Z,51.13
2023-05-02T09:54:46.187Z,50.98
2023-05-02T09:57:12.609Z,49.20
2023-05-02T09:59:39.770Z,51.44
2023-05-02T10:02:12.021Z,50.32
2023-05-02T10:04:39.432Z,49.23
2023-05-02T10:07:10.230Z,45.91
2023-05-02T10:09:41.566Z,44.13
2023-05-02T10:12:08.284Z,45.02
2023-05-02T10:14:51.593Z,41.36
2023-05-02T10:17:25.871Z,41.76
2023-05-02T10:20:04.572Z,43.20
2023-05-02T10:22:31.556Z,40.73
2023-05-02T10:24:59.613Z,47.42
2023-05-02T10:27:26.412Z,46.22
2023-05-02T10:29:54.443Z,42.53
2023-05-02T10:32:22.593Z,40.95
2023-05-02T10:34:51.604Z,39.85
2023-05-02T10:37:19.177Z,41.50
2023-05-02T10:39:45.712Z,41.46
2023-05-02T10:42:13.565Z,39.88
2023-05-02T10:44:41.338Z,39.51
2023-05-02T10:47:25.021Z,41.43
2023-05-02T10:49:56.010Z,38.28
2023-05-02T10:52:40.978Z,39.42
2023-05-02T10:55:19.426Z,38.27
2023-05-02T10:58:01.053Z,39.16
2023-05-02T11:00:29.687Z,41.66
2023-05-02T11:02:56.424Z,43.36
2023-05-02T11:05:26.799Z,41.42
2023-05-02T11:08:14.958Z,41.99
2023-05-02T11:10:41.471Z,39.40
2023-05-02T11:13:07.902Z,37.71
2023-05-02T11:15:34.218Z,39.04
2023-05-02T11:18:02.557Z,39.83
2023-05-02T11:20:30.373Z,44.96
2023-05-02T11:23:21.862Z,47.03
2023-05-02T11:25:49.951Z,45.36
2023-05-02T11:28:38.501Z,44.38
2023-05-02T11:31:06.561Z,41.20
2023-05-02T11:33:33.350Z,40.00
2023-05-02T11:35:59.792Z,38.02
2023-05-02T11:38:34.941Z,39.36
2023-05-02T11:41:02.908Z,36.96
2023-05-02T11:43:31.970Z,40.24
2023-05-02T11:46:00.139Z,41.92
2023-05-02T11:48:27.490Z,38.39
2023-05-02T11:51:06.957Z,41.24
2023-05-02T11:53:33.781Z,41.49
2023-05-02T11:56:03.700Z,41.42
2023-05-02T11:58:32.845Z,45.48
2023-05-02T12:01:13.304Z,44.01
2023-05-02T12:03:39.927Z,44.40
2023-05-02T12:06:15.368Z,45.72
2023-05-02T12:08:45.557Z,44.70
2023-05-02T12:11:16.344Z,45.55
2023-05-02T12:13:47.754Z,47.19
2023-05-02T12:16:14.645Z,47.73
2023-05-02T12:18:41.180Z,48.68
2023-05-02T12:21:08.966Z,50.18
2023-05-02T12:23:37.277Z,48.71
2023-05-02T12:26:25.251Z,48.49
2023-05-02T12:28:54.418Z,47.89
2023-05-02T12:31:21.233Z,48.37
2023-05-02T12:33:50.044Z,48.69
2023-05-02T12:36:17.616Z,46.12
2023-05-02T12:38:53.059Z,50.32
2023-05-02T12:41:31.843Z,49.15
2023-05-02T12:44:00.548Z,47.90
2023-05-02T12:46:28.353Z,48.78
2023-05-02T12:49:07.958Z,47.29
2023-05-02T12:51:34.756Z,50.40
2023-05-02T12:54:01.438Z,47.31
2023-05-02T12:56:32.111Z,46.88
2023-05-02T12:59:05.104Z,48.20
2023-05-02T13:01:33.776Z,50.43
2023-05-02T13:04:00.351Z,49.49
2023-05-02T13:06:27.458Z,48.51
2023-05-02T13:08:53.893Z,48.87
2023-05-02T13:11:20.654Z,48.31
2023-05-02T13:13:47.152Z,49.18
2023-05-02T13:16:13.608Z,50.29
2023-05-02T13:18:40.380Z,50.33
2023-05-02T13:21:06.827Z,51.43
2023-05-02T13:23:33.238Z,51.15
2023-05-02T13:25:59.669Z,50.72
2023-05-02T13:28:26.036Z,50.23
2023-05-02T13:30:52.518Z,50.70
2023-05-02T13:33:19.249Z,49.75
2023-05-02T13:35:46.424Z,50.28
2023-05-02T13:38:12.864Z,50.88
2023-05-02T13:40:39.198Z,49.48
2023-05-02T13:43:05.798Z,50.99
2023-05-02T13:45:32.161Z,51.80
2023-05-02T13:47:58.606Z,51.40
2023-05-02T13:50:25.013Z,51.59
2023-05-02T13:52:51.341Z,51.06
2023-05-02T13:55:17.842Z,52.19
2023-05-02T13:57:44.317Z,51.08
2023-05-02T14:00:11.409Z,51.32
2023-05-02T14:02:38.940Z,51.27
2023-05-02T14:05:05.933Z,51.75
2023-05-02T14:07:32.516Z,51.77
2023-05-02T14:09:59.081Z,53.04
2023-05-02T14:12:25.829Z,51.93
2023-05-02T14:14:52.507Z,52.78
2023-05-02T14:17:18.922Z,53.05
2023-05-02T14:19:45.356Z,51.86
2023-05-02T14:22:11.678Z,51.00
2023-05-02T14:24:38.009Z,52.13
2023-05-02T14:27:04.738Z,51.21
2023-05-02T14:29:31.093Z,51.49
2023-05-02T14:31:57.488Z,51.82
2023-05-02T14:34:26.783Z,50.88
2023-05-02T14:36:53.253Z,51.28
2023-05-02T14:39:19.612Z,51.61
2023-05-02T14:41:46.033Z,52.37
2023-05-02T14:44:12.429Z,52.96
2023-05-02T14:46:39.603Z,54.21
2023-05-02T14:49:06.043Z,50.85
2023-05-02T14:51:32.405Z,53.24
2023-05-02T14:53:58.734Z,52.53
2023-05-02T14:56:25.504Z,52.86
2023-05-02T14:58:51.919Z,53.53
2023-05-02T15:01:19.462Z,54.30
2023-05-02T15:04:03.511Z,52.54
2023-05-02T15:06:35.628Z,53.55
2023-05-02T15:09:02.595Z,52.49
2023-05-02T15:11:28.976Z,54.78
2023-05-02T15:13:57.491Z,53.69
2023-05-02T15:16:26.969Z,52.76
2023-05-02T15:18:53.694Z,53.76
2023-05-02T15:21:20.171Z,53.87
2023-05-02T15:23:47.246Z,54.29
2023-05-02T15:26:13.579Z,54.49
2023-05-02T15:28:40.577Z,55.44
2023-05-02T15:31:06.960Z,54.56
2023-05-02T15:33:33.737Z,52.76
2023-05-02T15:36:00.593Z,53.73
2023-05-02T15:38:27.099Z,53.37
2023-05-02T15:40:57.755Z,54.68
2023-05-02T15:43:24.782Z,54.39
2023-05-02T15:45:55.673Z,54.35
2023-05-02T15:48:23.114Z,53.21
2023-05-02T15:50:49.755Z,53.75
2023-05-02T15:53:16.878Z,54.32
2023-05-02T15:55:45.747Z,53.82
2023-05-02T15:58:12.871Z,53.82
2023-05-02T16:00:39.253Z,54.95
2023-05-02T16:03:06.242Z,57.19
2023-05-02T16:05:33.248Z,56.75
2023-05-02T16:07:59.781Z,56.07
2023-05-02T16:10:26.968Z,57.10
2023-05-02T16:12:53.417Z,55.81
2023-05-02T16:15:21.154Z,54.86
2023-05-02T16:17:49.053Z,56.12
2023-05-02T16:20:16.784Z,56.07
2023-05-02T16:22:47.577Z,57.28
2023-05-02T16:25:16.034Z,56.35
2023-05-02T16:27:42.764Z,57.51
2023-05-02T16:30:10.346Z,55.79
2023-05-02T16:32:40.401Z,56.44
2023-05-02T16:35:10.592Z,56.43
2023-05-02T16:37:37.014Z,56.76
2023-05-02T16:40:05.369Z,57.28
2023-05-02T16:42:32.494Z,57.40
2023-05-02T16:44:58.911Z,57.97
2023-05-02T16:47:25.650Z,57.89
2023-05-02T16:49:59.078Z,55.85
2023-05-02T16:52:26.495Z,57.29
2023-05-02T16:54:53.480Z,58.42
2023-05-02T16:57:21.179Z,58.31
2023-05-02T16:59:49.514Z,57.32
2023-05-02T17:02:16.789Z,58.49
2023-05-02T17:04:43.648Z,57.97
2023-05-02T17:07:12.220Z,58.05
2023-05-02T17:09:39.890Z,58.23
2023-05-02T17:12:07.407Z,56.71
2023-05-02T17:14:33.946Z,58.05
2023-05-02T17:17:01.412Z,57.83
2023-05-02T17:19:27.978Z,56.79
2023-05-02T17:21:54.917Z,58.12
2023-05-02T17:24:21.411Z,57.27
2023-05-02T17:26:48.064Z,58.45
2023-05-02T17:29:14.484Z,58.25
2023-05-02T17:31:41.107Z,58.50
2023-05-02T17:34:10.121Z,58.44
2023-05-02T17:36:36.544Z,58.36
2023-05-02T17:39:03.866Z,60.71
2023-05-02T17:41:30.810Z,60.59
2023-05-02T17:43:57.219Z,61.11
2023-05-02T17:46:23.648Z,60.57
2023-05-02T17:48:50.264Z,60.61
2023-05-02T17:51:16.582Z,60.92
2023-05-02T17:53:43.480Z,60.94
2023-05-02T17:56:10.670Z,60.71
2023-05-02T17:58:37.543Z,61.11
2023-05-02T18:01:11.206Z,61.91
2023-05-02T18:03:38.169Z,61.61
2023-05-02T18:06:04.758Z,61.42
2023-05-02T18:08:31.346Z,62.04
2023-05-02T18:10:58.738Z,62.28
2023-05-02T18:13:26.059Z,62.69
2023-05-02T18:15:59.806Z,62.92
2023-05-02T18:18:26.304Z,63.11
2023-05-02T18:20:52.752Z,63.20
2023-05-02T18:23:19.168Z,63.48
2023-05-02T18:25:45.505Z,63.32
2023-05-02T18:28:13.219Z,64.90
2023-05-02T18:30:40.105Z,65.19
2023-05-02T18:33:08.011Z,64.07
2023-05-02T18:35:35.468Z,64.69
2023-05-02T18:38:01.988Z,64.95
2023-05-02T18:40:28.429Z,65.00
2023-05-02T18:42:54.895Z,65.74
2023-05-02T18:45:21.278Z,65.44
2023-05-02T18:47:47.750Z,65.35
2023-05-02T18:50:14.163Z,67.92
2023-05-02T18:52:40.691Z,67.54
2023-05-02T18:55:07.391Z,68.33
2023-05-02T18:57:33.950Z,67.94
2023-05-02T19:00:00.891Z,68.45
2023-05-02T19:02:27.485Z,69.14
2023-05-02T19:04:53.959Z,68.85
2023-05-02T19:07:20.314Z,69.83
2023-05-02T19:09:46.617Z,70.33
2023-05-02T19:12:13.007Z,70.12
2023-05-02T19:14:40.179Z,69.86
2023-05-02T19:17:06.812Z,70.69
2023-05-02T19:19:33.211Z,70.69
2023-05-02T19:21:59.544Z,71.72
2023-05-02T19:24:26.308Z,71.46
2023-05-02T19:26:53.207Z,72.27
2023-05-02T19:29:19.586Z,73.22
2023-05-02T19:31:46.393Z,72.70
2023-05-02T19:34:12.899Z,73.95
2023-05-02T19:36:39.298Z,72.81
2023-05-02T19:39:05.719Z,72.55
2023-05-02T19:41:32.131Z,73.25
2023-05-02T19:43:59.876Z,73.33
2023-05-02T19:46:26.518Z,73.57
2023-05-02T19:48:52.912Z,74.42
2023-05-02T19:51:25.591Z,74.64
2023-05-02T19:53:54.673Z,74.88
2023-05-02T19:56:21.511Z,74.80
2023-05-02T19:58:47.908Z,75.02
2023-05-02T20:01:14.665Z,75.41
2023-05-02T20:03:41.073Z,75.45
2023-05-02T20:06:07.761Z,75.72
2023-05-02T20:08:34.405Z,76.07
2023-05-02T20:11:00.964Z,75.81
2023-05-02T20:13:27.487Z,75.93
2023-05-02T20:15:53.988Z,76.63
2023-05-02T20:18:20.836Z,77.43
2023-05-02T20:20:51.144Z,77.20
2023-05-02T20:23:18.022Z,78.36
2023-05-02T20:25:45.376Z,78.76
2023-05-02T20:28:13.936Z,78.19
2023-05-02T20:30:40.336Z,78.67
2023-05-02T20:33:14.800Z,78.68
2023-05-02T20:35:42.545Z,78.50
2023-05-02T20:38:09.697Z,78.97
2023-05-02T20:40:39.201Z,79.52
2023-05-02T20:43:06.212Z,78.75
2023-05-02T20:45:32.649Z,79.51
2023-05-02T20:47:59.206Z,79.22
2023-05-02T20:50:25.869Z,80.50
2023-05-02T20:52:52.310Z,80.45
2023-05-02T20:55:18.754Z,81.20
2023-05-02T20:57:45.633Z,82.13
2023-05-02T21:00:13.668Z,81.65
2023-05-02T21:02:40.102Z,80.85
2023-05-02T21:05:07.083Z,81.18
2023-05-02T21:07:33.427Z,81.25
2023-05-02T21:10:00.150Z,81.04
2023-05-02T21:12:26.842Z,81.13
2023-05-02T21:14:53.454Z,81.02
2023-05-02T21:17:19.780Z,81.06
2023-05-02T21:19:46.189Z,81.46
2023-05-02T21:22:12.640Z,81.95
2023-05-02T21:24:38.966Z,82.21
2023-05-02T21:27:05.532Z,82.85
2023-05-02T21:29:31.938Z,82.45
2023-05-02T21:31:58.354Z,83.00
2023-05-02T21:34:24.746Z,82.62
2023-05-02T21:36:51.079Z,83.14
2023-05-02T21:39:18.185Z,84.10
2023-05-02T21:41:44.521Z,84.86
2023-05-02T21:44:11.526Z,85.63
2023-05-02T21:46:37.957Z,86.35
2023-05-02T21:49:04.331Z,85.89
2023-05-02T21:51:30.706Z,85.66
2023-05-02T21:53:57.075Z,87.06
2023-05-02T21:56:23.440Z,87.44
2023-05-02T21:58:51.185Z,87.85
2023-05-02T22:01:17.914Z,87.63
2023-05-02T22:03:44.319Z,87.89
2023-05-02T22:06:10.886Z,88.18
2023-05-02T22:08:37.631Z,89.19
2023-05-02T22:11:09.025Z,89.24
2023-05-02T22:13:36.032Z,90.35
2023-05-02T22:16:02.455Z,90.06
2023-05-02T22:18:28.996Z,89.08
2023-05-02T22:20:57.237Z,88.05
2023-05-02T22:23:24.039Z,86.51
2023-05-02T22:25:50.525Z,87.71
2023-05-02T22:28:16.972Z,88.15
2023-05-02T22:30:43.426Z,88.92
2023-05-02T22:33:10.071Z,89.04
2023-05-02T22:35:37.546Z,88.98
2023-05-02T22:38:04.858Z,89.06
2023-05-02T22:40:31.662Z,89.08
2023-05-02T22:42:58.513Z,89.51
2023-05-02T22:45:26.782Z,89.60
2023-05-02T22:47:53.262Z,90.18
2023-05-02T22:50:19.829Z,89.62
2023-05-02T22:52:48.879Z,90.40
2023-05-02T22:55:15.482Z,90.90
2023-05-02T22:57:42.663Z,90.22
2023-05-02T23:00:10.395Z,90.60
2023-05-02T23:02:36.962Z,91.24
2023-05-02T23:05:04.194Z,90.54
2023-05-02T23:07:30.798Z,89.64
2023-05-02T23:09:57.169Z,90.77
2023-05-02T23:12:23.575Z,90.37
2023-05-02T23:14:50.022Z,90.20
2023-05-02T23:17:16.405Z,90.31
2023-05-02T23:19:42.811Z,90.00
2023-05-02T23:22:09.165Z,90.38
2023-05-02T23:24:35.562Z,91.11
2023-05-02T23:27:01.972Z,92.19
2023-05-02T23:29:28.513Z,92.07
2023-05-02T23:31:55.519Z,92.67
2023-05-02T23:34:22.256Z,93.61
2023-05-02T23:36:49.000Z,94.02
2023-05-02T23:39:15.385Z,92.95
2023-05-02T23:41:41.791Z,93.05
2023-05-02T23:44:08.103Z,93.22
2023-05-02T23:46:34.610Z,92.86
2023-05-02T23:49:00.979Z,93.38
2023-05-02T23:51:28.409Z,93.69
2023-05-02T23:53:54.896Z,94.21
2023-05-02T23:56:21.380Z,94.57
2023-05-02T23:58:47.762Z,95.22
